sensor_id;sensor_type;location;lat;lon;timestamp;P1;durP1;ratioP1;P2;durP2;ratioP2
25319;SDS011;13256;49.012;8.610;2023-07-30T00:05:19;1.00;;;0.68;;
25319;SDS011;13256;49.012;8.610;2023-07-30T00:07:47;0.75;;;0.43;;
25319;SDS011;13256;49.012;8.610;2023-07-30T00:10:16;1.17;;;0.70;;
25319;SDS011;13256;49.012;8.610;2023-07-30T00:12:47;1.08;;;0.50;;
25319;SDS011;13256;49.012;8.610;2023-07-30T00:15:19;1.10;;;0.63;;
25319;SDS011;13256;49.012;8.610;2023-07-30T00:17:49;3.88;;;0.60;;
25319;SDS011;13256;49.012;8.610;2023-07-30T00:20:16;1.15;;;0.57;;
25319;SDS011;13256;49.012;8.610;2023-07-30T00:22:44;2.63;;;0.60;;
25319;SDS011;13256;49.012;8.610;2023-07-30T00:25:11;1.25;;;0.50;;
25319;SDS011;13256;49.012;8.610;2023-07-30T00:27:38;1.23;;;0.50;;
25319;SDS011;13256;49.012;8.610;2023-07-30T00:30:06;1.15;;;0.50;;
25319;SDS011;13256;49.012;8.610;2023-07-30T00:32:38;1.42;;;0.50;;
25319;SDS011;13256;49.012;8.610;2023-07-30T00:35:12;1.20;;;0.55;;
25319;SDS011;13256;49.012;8.610;2023-07-30T00:37:42;0.75;;;0.40;;
25319;SDS011;13256;49.012;8.610;2023-07-30T00:40:13;0.63;;;0.50;;
25319;SDS011;13256;49.012;8.610;2023-07-30T00:42:41;0.55;;;0.40;;
25319;SDS011;13256;49.012;8.610;2023-07-30T00:45:11;0.60;;;0.40;;
25319;SDS011;13256;49.012;8.610;2023-07-30T00:47:40;0.63;;;0.30;;
25319;SDS011;13256;49.012;8.610;2023-07-30T00:50:08;0.70;;;0.68;;
25319;SDS011;13256;49.012;8.610;2023-07-30T00:52:42;2.60;;;0.47;;
25319;SDS011;13256;49.012;8.610;2023-07-30T00:55:09;1.15;;;0.60;;
25319;SDS011;13256;49.012;8.610;2023-07-30T00:57:40;1.98;;;0.50;;
25319;SDS011;13256;49.012;8.610;2023-07-30T01:00:09;2.38;;;0.50;;
25319;SDS011;13256;49.012;8.610;2023-07-30T01:02:38;0.95;;;0.55;;
25319;SDS011;13256;49.012;8.610;2023-07-30T01:07:43;4.40;;;0.70;;
25319;SDS011;13256;49.012;8.610;2023-07-30T01:10:17;1.27;;;0.50;;
25319;SDS011;13256;49.012;8.610;2023-07-30T01:12:48;2.22;;;0.63;;
25319;SDS011;13256;49.012;8.610;2023-07-30T01:15:15;2.20;;;0.60;;
25319;SDS011;13256;49.012;8.610;2023-07-30T01:17:44;2.25;;;0.70;;
25319;SDS011;13256;49.012;8.610;2023-07-30T01:20:14;2.60;;;0.80;;
25319;SDS011;13256;49.012;8.610;2023-07-30T01:23:32;1.17;;;0.70;;
25319;SDS011;13256;49.012;8.610;2023-07-30T01:26:08;1.48;;;1.00;;
25319;SDS011;13256;49.012;8.610;2023-07-30T01:28:42;1.00;;;0.57;;
25319;SDS011;13256;49.012;8.610;2023-07-30T01:31:14;1.20;;;0.95;;
25319;SDS011;13256;49.012;8.610;2023-07-30T01:33:46;0.90;;;0.60;;
25319;SDS011;13256;49.012;8.610;2023-07-30T01:36:16;1.30;;;0.60;;
25319;SDS011;13256;49.012;8.610;2023-07-30T01:38:52;1.48;;;0.80;;
25319;SDS011;13256;49.012;8.610;2023-07-30T01:41:21;3.28;;;0.77;;
25319;SDS011;13256;49.012;8.610;2023-07-30T01:44:18;3.05;;;0.70;;
25319;SDS011;13256;49.012;8.610;2023-07-30T01:46:45;0.95;;;0.70;;
25319;SDS011;13256;49.012;8.610;2023-07-30T01:49:16;2.63;;;1.13;;
25319;SDS011;13256;49.012;8.610;2023-07-30T01:51:43;1.77;;;1.13;;
25319;SDS011;13256;49.012;8.610;2023-07-30T01:54:12;1.30;;;0.98;;
25319;SDS011;13256;49.012;8.610;2023-07-30T01:56:42;1.50;;;1.27;;
25319;SDS011;13256;49.012;8.610;2023-07-30T01:59:13;2.17;;;1.10;;
25319;SDS011;13256;49.012;8.610;2023-07-30T02:01:44;2.05;;;1.40;;
25319;SDS011;13256;49.012;8.610;2023-07-30T02:04:13;3.10;;;1.42;;
25319;SDS011;13256;49.012;8.610;2023-07-30T02:06:48;2.92;;;1.95;;
25319;SDS011;13256;49.012;8.610;2023-07-30T02:09:15;4.72;;;1.80;;
25319;SDS011;13256;49.012;8.610;2023-07-30T02:11:46;2.97;;;2.10;;
25319;SDS011;13256;49.012;8.610;2023-07-30T02:14:14;2.53;;;1.83;;
25319;SDS011;13256;49.012;8.610;2023-07-30T02:16:48;4.18;;;2.08;;
25319;SDS011;13256;49.012;8.610;2023-07-30T02:19:15;3.22;;;1.92;;
25319;SDS011;13256;49.012;8.610;2023-07-30T02:21:50;3.42;;;2.10;;
25319;SDS011;13256;49.012;8.610;2023-07-30T02:24:17;4.18;;;1.80;;
25319;SDS011;13256;49.012;8.610;2023-07-30T02:26:47;2.33;;;1.50;;
25319;SDS011;13256;49.012;8.610;2023-07-30T02:29:16;3.75;;;1.98;;
25319;SDS011;13256;49.012;8.610;2023-07-30T02:35:55;3.80;;;1.88;;
25319;SDS011;13256;49.012;8.610;2023-07-30T02:41:22;3.03;;;1.30;;
25319;SDS011;13256;49.012;8.610;2023-07-30T03:03:13;5.50;;;1.80;;
25319;SDS011;13256;49.012;8.610;2023-07-30T03:05:43;2.30;;;1.70;;
25319;SDS011;13256;49.012;8.610;2023-07-30T03:08:12;2.35;;;1.50;;
25319;SDS011;13256;49.012;8.610;2023-07-30T03:10:40;3.10;;;1.65;;
25319;SDS011;13256;49.012;8.610;2023-07-30T03:13:10;3.65;;;1.80;;
25319;SDS011;13256;49.012;8.610;2023-07-30T03:15:37;3.42;;;1.67;;
25319;SDS011;13256;49.012;8.610;2023-07-30T03:18:06;3.65;;;1.85;;
25319;SDS011;13256;49.012;8.610;2023-07-30T03:20:33;7.00;;;1.83;;
25319;SDS011;13256;49.012;8.610;2023-07-30T03:23:03;3.08;;;2.08;;
25319;SDS011;13256;49.012;8.610;2023-07-30T03:25:36;8.02;;;2.30;;
25319;SDS011;13256;49.012;8.610;2023-07-30T03:28:03;3.85;;;2.20;;
25319;SDS011;13256;49.012;8.610;2023-07-30T03:30:30;3.22;;;1.80;;
25319;SDS011;13256;49.012;8.610;2023-07-30T03:33:00;2.92;;;2.00;;
25319;SDS011;13256;49.012;8.610;2023-07-30T03:35:27;6.55;;;2.00;;
25319;SDS011;13256;49.012;8.610;2023-07-30T03:37:57;3.35;;;2.15;;
25319;SDS011;13256;49.012;8.610;2023-07-30T03:40:24;5.53;;;2.65;;
25319;SDS011;13256;49.012;8.610;2023-07-30T03:42:55;3.20;;;2.40;;
25319;SDS011;13256;49.012;8.610;2023-07-30T03:45:27;3.50;;;2.40;;
25319;SDS011;13256;49.012;8.610;2023-07-30T03:47:56;4.13;;;2.45;;
25319;SDS011;13256;49.012;8.610;2023-07-30T03:50:24;5.78;;;2.40;;
25319;SDS011;13256;49.012;8.610;2023-07-30T03:52:53;4.03;;;2.40;;
25319;SDS011;13256;49.012;8.610;2023-07-30T03:55:22;5.82;;;2.17;;
25319;SDS011;13256;49.012;8.610;2023-07-30T03:57:48;3.25;;;2.63;;
25319;SDS011;13256;49.012;8.610;2023-07-30T04:00:16;3.05;;;1.90;;
25319;SDS011;13256;49.012;8.610;2023-07-30T04:02:46;4.22;;;2.13;;
25319;SDS011;13256;49.012;8.610;2023-07-30T04:05:19;6.53;;;1.80;;
25319;SDS011;13256;49.012;8.610;2023-07-30T04:07:46;2.92;;;1.80;;
25319;SDS011;13256;49.012;8.610;2023-07-30T04:10:15;1.85;;;1.67;;
25319;SDS011;13256;49.012;8.610;2023-07-30T04:12:43;4.00;;;1.65;;
25319;SDS011;13256;49.012;8.610;2023-07-30T04:15:14;2.17;;;1.30;;
25319;SDS011;13256;49.012;8.610;2023-07-30T04:17:41;2.00;;;1.42;;
25319;SDS011;13256;49.012;8.610;2023-07-30T04:20:15;1.70;;;1.38;;
25319;SDS011;13256;49.012;8.610;2023-07-30T04:22:44;1.33;;;1.13;;
25319;SDS011;13256;49.012;8.610;2023-07-30T04:25:16;1.88;;;1.60;;
25319;SDS011;13256;49.012;8.610;2023-07-30T04:27:49;1.80;;;1.10;;
25319;SDS011;13256;49.012;8.610;2023-07-30T04:35:54;1.67;;;1.27;;
25319;SDS011;13256;49.012;8.610;2023-07-30T04:38:24;2.17;;;1.50;;
25319;SDS011;13256;49.012;8.610;2023-07-30T04:40:52;6.28;;;1.50;;
25319;SDS011;13256;49.012;8.610;2023-07-30T04:43:20;3.00;;;1.33;;
25319;SDS011;13256;49.012;8.610;2023-07-30T04:45:58;2.65;;;1.65;;
25319;SDS011;13256;49.012;8.610;2023-07-30T04:48:25;1.95;;;1.27;;
25319;SDS011;13256;49.012;8.610;2023-07-30T04:50:53;3.53;;;1.52;;
25319;SDS011;13256;49.012;8.610;2023-07-30T04:53:19;2.95;;;1.38;;
25319;SDS011;13256;49.012;8.610;2023-07-30T04:55:46;1.25;;;0.93;;
25319;SDS011;13256;49.012;8.610;2023-07-30T04:58:14;4.35;;;1.30;;
25319;SDS011;13256;49.012;8.610;2023-07-30T05:00:49;1.92;;;1.08;;
25319;SDS011;13256;49.012;8.610;2023-07-30T05:03:22;2.40;;;1.15;;
25319;SDS011;13256;49.012;8.610;2023-07-30T05:05:51;1.00;;;0.90;;
25319;SDS011;13256;49.012;8.610;2023-07-30T05:08:21;2.13;;;1.05;;
25319;SDS011;13256;49.012;8.610;2023-07-30T05:10:48;1.08;;;0.95;;
25319;SDS011;13256;49.012;8.610;2023-07-30T05:14:00;2.38;;;0.88;;
25319;SDS011;13256;49.012;8.610;2023-07-30T05:16:27;1.77;;;0.93;;
25319;SDS011;13256;49.012;8.610;2023-07-30T05:18:56;2.70;;;1.10;;
25319;SDS011;13256;49.012;8.610;2023-07-30T05:21:23;2.20;;;1.30;;
25319;SDS011;13256;49.012;8.610;2023-07-30T05:23:50;4.55;;;1.33;;
25319;SDS011;13256;49.012;8.610;2023-07-30T05:26:18;1.55;;;1.20;;
25319;SDS011;13256;49.012;8.610;2023-07-30T05:28:44;1.50;;;1.20;;
25319;SDS011;13256;49.012;8.610;2023-07-30T05:31:11;1.98;;;1.25;;
25319;SDS011;13256;49.012;8.610;2023-07-30T05:33:43;1.98;;;1.10;;
25319;SDS011;13256;49.012;8.610;2023-07-30T05:36:13;1.30;;;1.17;;
25319;SDS011;13256;49.012;8.610;2023-07-30T05:38:40;1.67;;;1.27;;
25319;SDS011;13256;49.012;8.610;2023-07-30T05:41:13;1.58;;;1.20;;
25319;SDS011;13256;49.012;8.610;2023-07-30T05:43:40;3.58;;;1.63;;
25319;SDS011;13256;49.012;8.610;2023-07-30T05:46:07;1.67;;;1.25;;
25319;SDS011;13256;49.012;8.610;2023-07-30T05:48:37;1.92;;;1.30;;
25319;SDS011;13256;49.012;8.610;2023-07-30T05:51:12;2.42;;;1.20;;
25319;SDS011;13256;49.012;8.610;2023-07-30T05:53:40;1.35;;;1.25;;
25319;SDS011;13256;49.012;8.610;2023-07-30T05:56:06;1.65;;;1.40;;
25319;SDS011;13256;49.012;8.610;2023-07-30T05:58:35;4.07;;;1.67;;
25319;SDS011;13256;49.012;8.610;2023-07-30T06:01:05;1.73;;;1.45;;
25319;SDS011;13256;49.012;8.610;2023-07-30T06:06:24;2.90;;;1.60;;
25319;SDS011;13256;49.012;8.610;2023-07-30T06:09:20;5.18;;;1.88;;
25319;SDS011;13256;49.012;8.610;2023-07-30T06:11:46;2.15;;;1.52;;
25319;SDS011;13256;49.012;8.610;2023-07-30T06:14:14;4.90;;;1.90;;
25319;SDS011;13256;49.012;8.610;2023-07-30T06:16:45;1.45;;;1.35;;
25319;SDS011;13256;49.012;8.610;2023-07-30T06:19:13;1.73;;;1.40;;
25319;SDS011;13256;49.012;8.610;2023-07-30T06:21:40;4.32;;;1.67;;
25319;SDS011;13256;49.012;8.610;2023-07-30T06:24:07;1.90;;;1.40;;
25319;SDS011;13256;49.012;8.610;2023-07-30T06:26:33;2.30;;;1.60;;
25319;SDS011;13256;49.012;8.610;2023-07-30T06:29:06;3.40;;;1.80;;
25319;SDS011;13256;49.012;8.610;2023-07-30T06:31:36;4.93;;;1.60;;
25319;SDS011;13256;49.012;8.610;2023-07-30T06:34:08;2.70;;;1.80;;
25319;SDS011;13256;49.012;8.610;2023-07-30T06:36:34;2.25;;;1.70;;
25319;SDS011;13256;49.012;8.610;2023-07-30T06:39:01;5.97;;;2.13;;
25319;SDS011;13256;49.012;8.610;2023-07-30T06:41:28;3.47;;;1.67;;
25319;SDS011;13256;49.012;8.610;2023-07-30T06:43:59;3.53;;;1.73;;
25319;SDS011;13256;49.012;8.610;2023-07-30T06:46:31;1.85;;;1.33;;
25319;SDS011;13256;49.012;8.610;2023-07-30T06:49:01;1.55;;;1.23;;
25319;SDS011;13256;49.012;8.610;2023-07-30T06:51:28;3.53;;;1.30;;
25319;SDS011;13256;49.012;8.610;2023-07-30T06:53:58;1.40;;;1.05;;
25319;SDS011;13256;49.012;8.610;2023-07-30T06:56:30;1.85;;;1.48;;
25319;SDS011;13256;49.012;8.610;2023-07-30T06:58:56;1.50;;;1.10;;
25319;SDS011;13256;49.012;8.610;2023-07-30T07:01:23;1.67;;;1.00;;
25319;SDS011;13256;49.012;8.610;2023-07-30T07:03:50;1.30;;;1.10;;
25319;SDS011;13256;49.012;8.610;2023-07-30T07:06:19;3.25;;;1.02;;
25319;SDS011;13256;49.012;8.610;2023-07-30T07:08:52;1.42;;;1.05;;
25319;SDS011;13256;49.012;8.610;2023-07-30T07:11:19;1.73;;;1.02;;
25319;SDS011;13256;49.012;8.610;2023-07-30T07:13:50;1.48;;;1.17;;
25319;SDS011;13256;49.012;8.610;2023-07-30T07:16:25;4.30;;;1.25;;
25319;SDS011;13256;49.012;8.610;2023-07-30T07:18:52;3.78;;;1.73;;
25319;SDS011;13256;49.012;8.610;2023-07-30T07:21:18;1.33;;;1.23;;
25319;SDS011;13256;49.012;8.610;2023-07-30T07:23:52;2.13;;;1.60;;
25319;SDS011;13256;49.012;8.610;2023-07-30T07:26:21;1.50;;;1.35;;
25319;SDS011;13256;49.012;8.610;2023-07-30T07:28:48;3.35;;;1.63;;
25319;SDS011;13256;49.012;8.610;2023-07-30T07:31:18;2.83;;;1.95;;
25319;SDS011;13256;49.012;8.610;2023-07-30T07:33:45;2.28;;;1.75;;
25319;SDS011;13256;49.012;8.610;2023-07-30T07:36:12;5.68;;;2.63;;
25319;SDS011;13256;49.012;8.610;2023-07-30T07:39:10;2.72;;;2.03;;
25319;SDS011;13256;49.012;8.610;2023-07-30T07:41:37;2.03;;;1.67;;
25319;SDS011;13256;49.012;8.610;2023-07-30T07:44:04;1.88;;;1.40;;
25319;SDS011;13256;49.012;8.610;2023-07-30T07:46:31;2.35;;;1.80;;
25319;SDS011;13256;49.012;8.610;2023-07-30T07:49:01;4.07;;;1.83;;
25319;SDS011;13256;49.012;8.610;2023-07-30T07:51:29;2.25;;;1.63;;
25319;SDS011;13256;49.012;8.610;2023-07-30T07:54:03;2.90;;;1.60;;
25319;SDS011;13256;49.012;8.610;2023-07-30T07:56:33;2.97;;;1.80;;
25319;SDS011;13256;49.012;8.610;2023-07-30T07:59:02;3.38;;;1.80;;
25319;SDS011;13256;49.012;8.610;2023-07-30T08:01:32;2.58;;;1.75;;
25319;SDS011;13256;49.012;8.610;2023-07-30T08:04:00;4.43;;;2.08;;
25319;SDS011;13256;49.012;8.610;2023-07-30T08:06:28;2.38;;;1.73;;
25319;SDS011;13256;49.012;8.610;2023-07-30T08:08:56;4.75;;;2.17;;
25319;SDS011;13256;49.012;8.610;2023-07-30T08:11:23;1.75;;;1.55;;
25319;SDS011;13256;49.012;8.610;2023-07-30T08:13:50;4.43;;;1.55;;
25319;SDS011;13256;49.012;8.610;2023-07-30T08:16:17;2.55;;;1.77;;
25319;SDS011;13256;49.012;8.610;2023-07-30T08:18:46;2.13;;;1.63;;
25319;SDS011;13256;49.012;8.610;2023-07-30T08:21:15;3.53;;;1.50;;
25319;SDS011;13256;49.012;8.610;2023-07-30T08:23:43;2.70;;;1.92;;
25319;SDS011;13256;49.012;8.610;2023-07-30T08:26:11;4.15;;;1.73;;
25319;SDS011;13256;49.012;8.610;2023-07-30T08:28:40;3.25;;;1.85;;
25319;SDS011;13256;49.012;8.610;2023-07-30T08:31:09;3.25;;;2.03;;
25319;SDS011;13256;49.012;8.610;2023-07-30T08:33:40;3.25;;;1.50;;
25319;SDS011;13256;49.012;8.610;2023-07-30T08:36:10;4.22;;;1.98;;
25319;SDS011;13256;49.012;8.610;2023-07-30T08:44:00;2.10;;;1.58;;
25319;SDS011;13256;49.012;8.610;2023-07-30T08:46:28;2.15;;;1.95;;
25319;SDS011;13256;49.012;8.610;2023-07-30T08:48:55;3.38;;;2.10;;
25319;SDS011;13256;49.012;8.610;2023-07-30T08:51:24;3.08;;;1.98;;
25319;SDS011;13256;49.012;8.610;2023-07-30T08:53:53;4.05;;;1.92;;
25319;SDS011;13256;49.012;8.610;2023-07-30T08:56:22;4.28;;;1.88;;
25319;SDS011;13256;49.012;8.610;2023-07-30T08:58:51;1.83;;;1.40;;
25319;SDS011;13256;49.012;8.610;2023-07-30T09:01:38;2.22;;;1.67;;
25319;SDS011;13256;49.012;8.610;2023-07-30T09:04:09;3.35;;;1.90;;
25319;SDS011;13256;49.012;8.610;2023-07-30T09:06:39;3.10;;;1.88;;
25319;SDS011;13256;49.012;8.610;2023-07-30T09:09:12;1.65;;;1.55;;
25319;SDS011;13256;49.012;8.610;2023-07-30T09:11:43;2.97;;;1.40;;
25319;SDS011;13256;49.012;8.610;2023-07-30T09:14:19;2.35;;;1.50;;
25319;SDS011;13256;49.012;8.610;2023-07-30T09:16:48;3.80;;;1.55;;
25319;SDS011;13256;49.012;8.610;2023-07-30T09:19:23;1.50;;;1.40;;
25319;SDS011;13256;49.012;8.610;2023-07-30T09:21:50;4.57;;;1.67;;
25319;SDS011;13256;49.012;8.610;2023-07-30T09:24:20;2.03;;;1.60;;
25319;SDS011;13256;49.012;8.610;2023-07-30T09:26:48;2.00;;;1.55;;
25319;SDS011;13256;49.012;8.610;2023-07-30T09:29:15;2.58;;;1.92;;
25319;SDS011;13256;49.012;8.610;2023-07-30T09:31:56;2.90;;;1.65;;
25319;SDS011;13256;49.012;8.610;2023-07-30T09:34:25;3.78;;;1.73;;
25319;SDS011;13256;49.012;8.610;2023-07-30T09:36:53;3.05;;;1.80;;
25319;SDS011;13256;49.012;8.610;2023-07-30T09:39:26;2.22;;;1.55;;
25319;SDS011;13256;49.012;8.610;2023-07-30T09:42:01;3.13;;;1.70;;
25319;SDS011;13256;49.012;8.610;2023-07-30T09:44:31;1.75;;;1.40;;
25319;SDS011;13256;49.012;8.610;2023-07-30T09:47:03;2.80;;;1.73;;
25319;SDS011;13256;49.012;8.610;2023-07-30T09:52:42;3.78;;;1.35;;
25319;SDS011;13256;49.012;8.610;2023-07-30T09:55:11;2.88;;;1.77;;
25319;SDS011;13256;49.012;8.610;2023-07-30T09:57:38;3.50;;;1.67;;
25319;SDS011;13256;49.012;8.610;2023-07-30T10:00:08;2.38;;;1.80;;
25319;SDS011;13256;49.012;8.610;2023-07-30T10:02:50;3.08;;;1.52;;
25319;SDS011;13256;49.012;8.610;2023-07-30T10:05:27;2.65;;;1.50;;
25319;SDS011;13256;49.012;8.610;2023-07-30T10:08:00;4.85;;;1.83;;
25319;SDS011;13256;49.012;8.610;2023-07-30T10:10:32;4.93;;;1.50;;
25319;SDS011;13256;49.012;8.610;2023-07-30T10:13:08;4.57;;;1.80;;
25319;SDS011;13256;49.012;8.610;2023-07-30T10:15:41;3.25;;;1.70;;
25319;SDS011;13256;49.012;8.610;2023-07-30T10:18:16;2.67;;;1.60;;
25319;SDS011;13256;49.012;8.610;2023-07-30T10:20:52;2.85;;;1.80;;
25319;SDS011;13256;49.012;8.610;2023-07-30T10:23:26;3.13;;;1.50;;
25319;SDS011;13256;49.012;8.610;2023-07-30T10:25:55;4.13;;;2.15;;
25319;SDS011;13256;49.012;8.610;2023-07-30T10:31:22;5.90;;;1.83;;
25319;SDS011;13256;49.012;8.610;2023-07-30T10:34:11;3.10;;;1.52;;
25319;SDS011;13256;49.012;8.610;2023-07-30T10:36:43;1.85;;;1.20;;
25319;SDS011;13256;49.012;8.610;2023-07-30T10:41:50;1.60;;;1.00;;
25319;SDS011;13256;49.012;8.610;2023-07-30T10:44:25;2.05;;;1.40;;
25319;SDS011;13256;49.012;8.610;2023-07-30T10:46:53;5.03;;;1.23;;
25319;SDS011;13256;49.012;8.610;2023-07-30T10:49:21;1.25;;;1.15;;
25319;SDS011;13256;49.012;8.610;2023-07-30T10:51:54;2.90;;;1.40;;
25319;SDS011;13256;49.012;8.610;2023-07-30T10:54:23;3.47;;;0.80;;
25319;SDS011;13256;49.012;8.610;2023-07-30T10:56:51;1.13;;;1.00;;
25319;SDS011;13256;49.012;8.610;2023-07-30T10:59:20;3.80;;;1.08;;
25319;SDS011;13256;49.012;8.610;2023-07-30T11:01:47;1.40;;;0.88;;
25319;SDS011;13256;49.012;8.610;2023-07-30T11:04:43;2.20;;;1.20;;
25319;SDS011;13256;49.012;8.610;2023-07-30T11:07:10;2.67;;;1.05;;
25319;SDS011;13256;49.012;8.610;2023-07-30T11:09:57;3.13;;;1.00;;
25319;SDS011;13256;49.012;8.610;2023-07-30T11:12:26;1.40;;;0.98;;
25319;SDS011;13256;49.012;8.610;2023-07-30T11:15:01;2.88;;;0.80;;
25319;SDS011;13256;49.012;8.610;2023-07-30T11:17:32;1.35;;;1.00;;
25319;SDS011;13256;49.012;8.610;2023-07-30T11:20:02;3.95;;;1.17;;
25319;SDS011;13256;49.012;8.610;2023-07-30T11:22:32;4.30;;;1.20;;
25319;SDS011;13256;49.012;8.610;2023-07-30T11:25:02;1.13;;;0.80;;
25319;SDS011;13256;49.012;8.610;2023-07-30T11:30:20;1.00;;;0.80;;
25319;SDS011;13256;49.012;8.610;2023-07-30T11:32:51;2.13;;;0.75;;
25319;SDS011;13256;49.012;8.610;2023-07-30T11:38:16;4.30;;;0.95;;
25319;SDS011;13256;49.012;8.610;2023-07-30T11:40:46;1.95;;;0.90;;
25319;SDS011;13256;49.012;8.610;2023-07-30T11:43:16;2.45;;;0.90;;
25319;SDS011;13256;49.012;8.610;2023-07-30T11:45:44;5.93;;;1.00;;
25319;SDS011;13256;49.012;8.610;2023-07-30T11:48:23;4.85;;;0.70;;
25319;SDS011;13256;49.012;8.610;2023-07-30T11:50:51;3.40;;;0.70;;
25319;SDS011;13256;49.012;8.610;2023-07-30T11:53:57;1.75;;;0.82;;
25319;SDS011;13256;49.012;8.610;2023-07-30T11:56:26;1.13;;;0.57;;
25319;SDS011;13256;49.012;8.610;2023-07-30T11:59:06;2.03;;;0.68;;
25319;SDS011;13256;49.012;8.610;2023-07-30T12:01:34;2.10;;;0.68;;
25319;SDS011;13256;49.012;8.610;2023-07-30T12:04:06;1.98;;;0.98;;
25319;SDS011;13256;49.012;8.610;2023-07-30T12:06:48;2.33;;;0.70;;
25319;SDS011;13256;49.012;8.610;2023-07-30T12:09:24;1.65;;;0.95;;
25319;SDS011;13256;49.012;8.610;2023-07-30T12:11:57;2.45;;;0.70;;
25319;SDS011;13256;49.012;8.610;2023-07-30T12:14:28;1.02;;;0.75;;
25319;SDS011;13256;49.012;8.610;2023-07-30T12:17:50;2.53;;;1.10;;
25319;SDS011;13256;49.012;8.610;2023-07-30T12:20:16;3.60;;;1.05;;
25319;SDS011;13256;49.012;8.610;2023-07-30T12:22:43;1.35;;;0.90;;
25319;SDS011;13256;49.012;8.610;2023-07-30T12:25:10;3.15;;;1.02;;
25319;SDS011;13256;49.012;8.610;2023-07-30T12:27:37;3.33;;;1.02;;
25319;SDS011;13256;49.012;8.610;2023-07-30T12:30:04;3.38;;;1.52;;
25319;SDS011;13256;49.012;8.610;2023-07-30T12:32:31;3.47;;;1.20;;
25319;SDS011;13256;49.012;8.610;2023-07-30T12:35:01;1.60;;;1.00;;
25319;SDS011;13256;49.012;8.610;2023-07-30T12:37:32;1.20;;;1.10;;
25319;SDS011;13256;49.012;8.610;2023-07-30T12:40:03;2.85;;;1.38;;
25319;SDS011;13256;49.012;8.610;2023-07-30T12:45:42;2.25;;;1.00;;
25319;SDS011;13256;49.012;8.610;2023-07-30T12:48:14;2.25;;;1.55;;
25319;SDS011;13256;49.012;8.610;2023-07-30T12:50:41;2.10;;;0.93;;
25319;SDS011;13256;49.012;8.610;2023-07-30T12:53:10;2.22;;;1.00;;
25319;SDS011;13256;49.012;8.610;2023-07-30T12:55:36;2.53;;;1.20;;
25319;SDS011;13256;49.012;8.610;2023-07-30T12:58:05;3.70;;;1.05;;
25319;SDS011;13256;49.012;8.610;2023-07-30T13:00:33;2.17;;;1.10;;
25319;SDS011;13256;49.012;8.610;2023-07-30T13:03:05;3.25;;;1.10;;
25319;SDS011;13256;49.012;8.610;2023-07-30T13:05:32;2.42;;;1.08;;
25319;SDS011;13256;49.012;8.610;2023-07-30T13:08:01;2.42;;;1.17;;
25319;SDS011;13256;49.012;8.610;2023-07-30T13:10:29;3.80;;;1.77;;
25319;SDS011;13256;49.012;8.610;2023-07-30T13:12:56;3.42;;;1.20;;
25319;SDS011;13256;49.012;8.610;2023-07-30T13:15:23;5.50;;;1.38;;
25319;SDS011;13256;49.012;8.610;2023-07-30T13:17:50;3.20;;;1.27;;
25319;SDS011;13256;49.012;8.610;2023-07-30T13:20:17;4.15;;;1.08;;
25319;SDS011;13256;49.012;8.610;2023-07-30T13:22:49;3.78;;;1.10;;
25319;SDS011;13256;49.012;8.610;2023-07-30T13:25:17;2.97;;;1.20;;
25319;SDS011;13256;49.012;8.610;2023-07-30T13:27:44;2.97;;;1.17;;
25319;SDS011;13256;49.012;8.610;2023-07-30T13:30:12;4.65;;;1.33;;
25319;SDS011;13256;49.012;8.610;2023-07-30T13:32:39;2.53;;;1.10;;
25319;SDS011;13256;49.012;8.610;2023-07-30T13:35:06;4.35;;;1.45;;
25319;SDS011;13256;49.012;8.610;2023-07-30T13:37:33;3.42;;;1.40;;
25319;SDS011;13256;49.012;8.610;2023-07-30T13:40:01;4.05;;;1.30;;
25319;SDS011;13256;49.012;8.610;2023-07-30T13:44:58;2.72;;;1.08;;
25319;SDS011;13256;49.012;8.610;2023-07-30T13:47:28;5.90;;;1.45;;
25319;SDS011;13256;49.012;8.610;2023-07-30T13:49:54;2.65;;;1.10;;
25319;SDS011;13256;49.012;8.610;2023-07-30T13:52:25;1.27;;;0.90;;
25319;SDS011;13256;49.012;8.610;2023-07-30T13:54:51;2.17;;;0.93;;
25319;SDS011;13256;49.012;8.610;2023-07-30T13:57:21;2.08;;;0.98;;
25319;SDS011;13256;49.012;8.610;2023-07-30T13:59:52;1.92;;;1.02;;
25319;SDS011;13256;49.012;8.610;2023-07-30T14:02:19;2.67;;;1.10;;
25319;SDS011;13256;49.012;8.610;2023-07-30T14:04:47;5.40;;;1.33;;
25319;SDS011;13256;49.012;8.610;2023-07-30T14:07:15;3.88;;;0.95;;
25319;SDS011;13256;49.012;8.610;2023-07-30T14:09:44;3.85;;;1.10;;
25319;SDS011;13256;49.012;8.610;2023-07-30T14:12:12;1.63;;;0.90;;
25319;SDS011;13256;49.012;8.610;2023-07-30T14:14:41;2.80;;;1.02;;
25319;SDS011;13256;49.012;8.610;2023-07-30T14:17:13;1.63;;;0.80;;
25319;SDS011;13256;49.012;8.610;2023-07-30T14:19:42;5.03;;;1.00;;
25319;SDS011;13256;49.012;8.610;2023-07-30T14:22:09;5.45;;;1.00;;
25319;SDS011;13256;49.012;8.610;2023-07-30T14:24:44;3.00;;;1.27;;
25319;SDS011;13256;49.012;8.610;2023-07-30T14:27:15;3.75;;;1.20;;
25319;SDS011;13256;49.012;8.610;2023-07-30T14:29:46;4.55;;;1.00;;
25319;SDS011;13256;49.012;8.610;2023-07-30T14:32:14;3.27;;;0.83;;
25319;SDS011;13256;49.012;8.610;2023-07-30T14:34:41;1.92;;;1.00;;
25319;SDS011;13256;49.012;8.610;2023-07-30T14:37:08;2.22;;;0.82;;
25319;SDS011;13256;49.012;8.610;2023-07-30T14:39:38;1.73;;;1.00;;
25319;SDS011;13256;49.012;8.610;2023-07-30T14:42:07;2.28;;;0.85;;
25319;SDS011;13256;49.012;8.610;2023-07-30T14:44:34;4.55;;;0.98;;
25319;SDS011;13256;49.012;8.610;2023-07-30T14:47:05;2.78;;;0.80;;
25319;SDS011;13256;49.012;8.610;2023-07-30T14:49:34;3.40;;;0.90;;
25319;SDS011;13256;49.012;8.610;2023-07-30T14:52:07;2.90;;;0.90;;
25319;SDS011;13256;49.012;8.610;2023-07-30T14:54:34;3.88;;;0.98;;
25319;SDS011;13256;49.012;8.610;2023-07-30T14:57:02;2.75;;;0.75;;
25319;SDS011;13256;49.012;8.610;2023-07-30T14:59:28;1.77;;;0.70;;
25319;SDS011;13256;49.012;8.610;2023-07-30T15:02:26;4.70;;;1.38;;
25319;SDS011;13256;49.012;8.610;2023-07-30T15:04:55;3.25;;;0.98;;
25319;SDS011;13256;49.012;8.610;2023-07-30T15:07:26;3.63;;;0.90;;
25319;SDS011;13256;49.012;8.610;2023-07-30T15:09:54;2.97;;;0.75;;
25319;SDS011;13256;49.012;8.610;2023-07-30T15:12:22;1.30;;;0.70;;
25319;SDS011;13256;49.012;8.610;2023-07-30T15:14:51;2.35;;;0.80;;
25319;SDS011;13256;49.012;8.610;2023-07-30T15:17:17;3.08;;;1.08;;
25319;SDS011;13256;49.012;8.610;2023-07-30T15:19:44;3.38;;;0.90;;
25319;SDS011;13256;49.012;8.610;2023-07-30T15:22:13;3.78;;;0.98;;
25319;SDS011;13256;49.012;8.610;2023-07-30T15:24:42;4.50;;;0.90;;
25319;SDS011;13256;49.012;8.610;2023-07-30T15:27:09;2.33;;;0.70;;
25319;SDS011;13256;49.012;8.610;2023-07-30T15:29:36;2.42;;;0.90;;
25319;SDS011;13256;49.012;8.610;2023-07-30T15:32:03;1.25;;;0.50;;
25319;SDS011;13256;49.012;8.610;2023-07-30T15:34:30;3.95;;;1.23;;
25319;SDS011;13256;49.012;8.610;2023-07-30T15:36:57;1.42;;;0.60;;
25319;SDS011;13256;49.012;8.610;2023-07-30T15:39:29;3.20;;;0.80;;
25319;SDS011;13256;49.012;8.610;2023-07-30T15:42:08;2.30;;;0.95;;
25319;SDS011;13256;49.012;8.610;2023-07-30T15:44:35;4.63;;;0.77;;
25319;SDS011;13256;49.012;8.610;2023-07-30T15:47:03;7.45;;;1.10;;
25319;SDS011;13256;49.012;8.610;2023-07-30T15:49:30;2.53;;;0.75;;
25319;SDS011;13256;49.012;8.610;2023-07-30T15:52:02;2.53;;;0.90;;
25319;SDS011;13256;49.012;8.610;2023-07-30T15:54:32;1.10;;;0.70;;
25319;SDS011;13256;49.012;8.610;2023-07-30T15:57:03;6.28;;;0.93;;
25319;SDS011;13256;49.012;8.610;2023-07-30T15:59:32;3.28;;;1.00;;
25319;SDS011;13256;49.012;8.610;2023-07-30T16:01:59;4.53;;;1.13;;
25319;SDS011;13256;49.012;8.610;2023-07-30T16:04:32;3.85;;;0.93;;
25319;SDS011;13256;49.012;8.610;2023-07-30T16:06:59;1.98;;;0.82;;
25319;SDS011;13256;49.012;8.610;2023-07-30T16:09:32;2.33;;;0.85;;
25319;SDS011;13256;49.012;8.610;2023-07-30T16:12:06;5.20;;;0.95;;
25319;SDS011;13256;49.012;8.610;2023-07-30T16:14:40;2.97;;;0.93;;